Time;durP1;ratioP1;P1;durP2;ratioP2;P2;SDS_P1;SDS_P2;PMS_P1;PMS_P2;Temp;Humidity;BMP_temperature;BMP_pressure;BME280_temperature;BME280_humidity;BME280_pressure;Samples;Min_cycle;Max_cycle;Signal;HPM_P1;HPM_P2
2022/07/25 00:01:40;;;;;;;;;;;28.20;42.10;;;;;;1596316;73;1141;-65
2022/07/25 00:03:42;;;;;;;;;;;28.30;42.20;;;;;;1602853;73;1916;-65
2022/07/25 00:05:44;;;;;;;;;;;28.30;42.10;;;;;;1604744;73;668;-66
2022/07/25 00:07:46;;;;;;;;;;;28.20;42.10;;;;;;1593873;72;747;-67
2022/07/25 00:09:48;;;;;;;;;;;28.20;42.20;;;;;;1601037;72;741;-66
2022/07/25 00:11:50;;;;;;;;;;;28.30;42.30;;;;;;1590220;73;1542;-66
2022/07/25 00:13:52;;;;;;;;;;;28.30;42.30;;;;;;1597985;73;671;-66
2022/07/25 00:15:54;;;;;;;;;;;28.20;42.30;;;;;;1594329;73;926;-66
2022/07/25 00:17:56;;;;;;;;;;;28.30;42.30;;;;;;1604194;73;721;-69
2022/07/25 00:19:58;;;;;;;;;;;28.30;42.30;;;;;;1597806;73;761;-70
2022/07/25 00:21:59;;;;;;;;;;;28.20;42.30;;;;;;1602417;73;1201;-69
2022/07/25 00:24:01;;;;;;;;;;;28.30;42.30;;;;;;1602076;73;1929;-70
2022/07/25 00:26:03;;;;;;;;;;;28.20;42.20;;;;;;1590540;73;1574;-69
2022/07/25 00:28:05;;;;;;;;;;;28.20;42.20;;;;;;1590945;73;665;-70
2022/07/25 00:30:07;;;;;;;;;;;28.20;42.20;;;;;;1595391;73;765;-69
2022/07/25 00:32:09;;;;;;;;;;;28.20;42.20;;;;;;1604476;73;1147;-70
2022/07/25 00:34:11;;;;;;;;;;;28.20;42.20;;;;;;1599325;73;726;-66
2022/07/25 00:36:13;;;;;;;;;;;28.20;42.30;;;;;;1604571;72;683;-66
2022/07/25 00:38:15;;;;;;;;;;;28.20;42.40;;;;;;1595394;72;645;-66
2022/07/25 00:40:17;;;;;;;;;;;28.20;42.30;;;;;;1601429;72;1529;-66
2022/07/25 00:42:20;;;;;;;;;;;28.20;42.30;;;;;;1597020;72;1135;-67
2022/07/25 00:44:23;;;;;;;;;;;28.20;42.30;;;;;;1591414;73;1910;-63
2022/07/25 00:46:25;;;;;;;;;;;28.20;42.30;;;;;;1590168;72;672;-64
2022/07/25 00:48:27;;;;;;;;;;;28.20;42.30;;;;;;1598182;73;723;-65
2022/07/25 00:50:29;;;;;;;;;;;28.20;42.30;;;;;;1605686;72;814;-65
2022/07/25 00:52:31;;;;;;;;;;;28.20;42.40;;;;;;1604550;73;1163;-64
2022/07/25 00:54:33;;;;;;;;;;;28.20;42.30;;;;;;1603878;72;1552;-64
2022/07/25 00:56:34;;;;;;;;;;;28.20;42.50;;;;;;1597952;73;674;-64
2022/07/25 00:58:36;;;;;;;;;;;28.20;42.40;;;;;;1597037;72;714;-66
2022/07/25 01:00:39;;;;;;;;;;;28.20;42.40;;;;;;1604684;73;792;-66
2022/07/25 01:02:41;;;;;;;;;;;28.20;42.40;;;;;;1587471;73;1085;-66
2022/07/25 01:04:43;;;;;;;;;;;28.20;42.40;;;;;;1603747;73;1936;-66
2022/07/25 01:06:45;;;;;;;;;;;28.20;42.40;;;;;;1600753;73;658;-66
2022/07/25 01:08:47;;;;;;;;;;;28.10;42.40;;;;;;1602573;73;1628;-66
2022/07/25 01:10:49;;;;;;;;;;;28.20;42.40;;;;;;1606432;72;787;-66
2022/07/25 01:12:52;;;;;;;;;;;28.20;42.30;;;;;;1602596;73;1130;-65
2022/07/25 01:14:53;;;;;;;;;;;28.20;42.40;;;;;;1593960;73;770;-65
2022/07/25 01:16:55;;;;;;;;;;;28.20;42.40;;;;;;1589807;73;767;-67
2022/07/25 01:18:57;;;;;;;;;;;28.20;42.40;;;;;;1595105;73;720;-64
2022/07/25 01:20:59;;;;;;;;;;;28.20;42.40;;;;;;1608081;73;781;-64
2022/07/25 01:23:01;;;;;;;;;;;28.20;42.40;;;;;;1600869;73;1412;-64
2022/07/25 01:25:04;;;;;;;;;;;28.20;42.30;;;;;;1589441;73;1950;-64
2022/07/25 01:27:05;;;;;;;;;;;28.10;42.40;;;;;;1592575;73;720;-65
2022/07/25 01:29:07;;;;;;;;;;;28.10;42.30;;;;;;1589775;73;724;-65
2022/07/25 01:31:09;;;;;;;;;;;28.10;42.40;;;;;;1602515;73;703;-66
2022/07/25 01:33:20;;;;;;;;;;;28.20;42.30;;;;;;1605873;73;1197;-66
2022/07/25 01:35:22;;;;;;;;;;;28.10;42.30;;;;;;1600019;73;644;-67
2022/07/25 01:37:24;;;;;;;;;;;28.20;42.30;;;;;;1597362;73;1633;-65
2022/07/25 01:39:26;;;;;;;;;;;28.10;42.40;;;;;;1601358;73;712;-65
2022/07/25 01:41:28;;;;;;;;;;;28.10;42.40;;;;;;1605179;73;699;-70
2022/07/25 01:43:30;;;;;;;;;;;28.10;42.40;;;;;;1601316;73;1952;-67
2022/07/25 01:45:32;;;;;;;;;;;28.10;42.40;;;;;;1605283;72;684;-66
2022/07/25 01:47:33;;;;;;;;;;;28.20;42.30;;;;;;1597411;73;725;-65
2022/07/25 01:49:35;;;;;;;;;;;28.10;42.40;;;;;;1606624;73;772;-66
2022/07/25 01:51:42;;;;;;;;;;;28.10;42.40;;;;;;1603074;73;1603;-63
2022/07/25 01:53:41;;;;;;;;;;;28.10;42.30;;;;;;1589353;73;1213;-65
2022/07/25 01:55:44;;;;;;;;;;;28.10;42.30;;;;;;1597688;73;783;-64
2022/07/25 01:57:46;;;;;;;;;;;28.10;42.30;;;;;;1602950;73;754;-65
2022/07/25 01:59:48;;;;;;;;;;;28.10;42.40;;;;;;1596220;73;706;-65
2022/07/25 02:01:50;;;;;;;;;;;28.20;42.30;;;;;;1594931;73;1120;-65
2022/07/25 02:03:52;;;;;;;;;;;28.10;42.30;;;;;;1609269;73;1924;-65
2022/07/25 02:05:53;;;;;;;;;;;28.10;42.40;;;;;;1590798;73;1684;-66
2022/07/25 02:07:55;;;;;;;;;;;28.10;42.40;;;;;;1595256;73;768;-68
2022/07/25 02:09:57;;;;;;;;;;;28.10;42.40;;;;;;1612133;72;799;-66
2022/07/25 02:11:59;;;;;;;;;;;28.10;42.40;;;;;;1596061;73;1143;-64
2022/07/25 02:14:01;;;;;;;;;;;28.10;42.50;;;;;;1590114;73;674;-64
2022/07/25 02:16:03;;;;;;;;;;;28.10;42.50;;;;;;1588614;73;795;-64
2022/07/25 02:18:05;;;;;;;;;;;28.10;42.40;;;;;;1607270;73;789;-64
2022/07/25 02:20:07;;;;;;;;;;;28.10;42.50;;;;;;1589869;73;1681;-65
2022/07/25 02:22:09;;;;;;;;;;;28.10;42.50;;;;;;1607100;73;1194;-65
2022/07/25 02:24:11;;;;;;;;;;;28.10;42.40;;;;;;1599905;73;1949;-64
2022/07/25 02:26:13;;;;;;;;;;;28.10;42.40;;;;;;1605706;73;720;-66
2022/07/25 02:28:15;;;;;;;;;;;28.10;42.40;;;;;;1612345;73;917;-64
2022/07/25 02:30:16;;;;;;;;;;;28.10;42.30;;;;;;1601556;73;629;-64
2022/07/25 02:32:18;;;;;;;;;;;28.10;42.40;;;;;;1602102;72;1584;-64
2022/07/25 02:34:20;;;;;;;;;;;28.10;42.40;;;;;;1598061;73;768;-64
2022/07/25 02:36:22;;;;;;;;;;;28.10;42.40;;;;;;1597561;73;681;-64
2022/07/25 02:38:25;;;;;;;;;;;28.10;42.40;;;;;;1603114;73;636;-65
2022/07/25 02:40:27;;;;;;;;;;;28.10;42.40;;;;;;1600283;73;690;-64
2022/07/25 02:42:28;;;;;;;;;;;28.10;42.40;;;;;;1605591;73;1116;-65
2022/07/25 02:44:30;;;;;;;;;;;28.10;42.30;;;;;;1611534;73;1925;-65
2022/07/25 02:46:32;;;;;;;;;;;28.10;42.40;;;;;;1603343;73;1403;-66
2022/07/25 02:48:34;;;;;;;;;;;28.10;42.30;;;;;;1593030;73;803;-65
2022/07/25 02:50:36;;;;;;;;;;;28.10;42.40;;;;;;1598405;72;769;-65
2022/07/25 02:52:38;;;;;;;;;;;28.10;42.50;;;;;;1604310;73;1164;-65
2022/07/25 02:54:40;;;;;;;;;;;28.10;42.30;;;;;;1600162;73;672;-64
2022/07/25 02:56:42;;;;;;;;;;;28.10;42.40;;;;;;1609997;73;672;-62
2022/07/25 02:58:43;;;;;;;;;;;28.10;42.50;;;;;;1595625;73;663;-64
2022/07/25 03:00:45;;;;;;;;;;;28.10;42.40;;;;;;1607243;73;1543;-65
2022/07/25 03:02:47;;;;;;;;;;;28.10;42.40;;;;;;1597642;73;1150;-62
2022/07/25 03:04:49;;;;;;;;;;;28.10;42.40;;;;;;1610330;73;1952;-65
2022/07/25 03:06:51;;;;;;;;;;;28.10;42.40;;;;;;1608976;73;672;-66
2022/07/25 03:08:53;;;;;;;;;;;28.10;42.50;;;;;;1594703;73;780;-67
2022/07/25 03:10:55;;;;;;;;;;;28.10;42.50;;;;;;1589534;73;745;-65
2022/07/25 03:12:57;;;;;;;;;;;28.10;42.40;;;;;;1591594;73;1129;-66
2022/07/25 03:14:59;;;;;;;;;;;28.10;42.40;;;;;;1590761;72;1523;-66
2022/07/25 03:17:01;;;;;;;;;;;28.10;42.40;;;;;;1597236;73;627;-65
2022/07/25 03:19:03;;;;;;;;;;;28.10;42.40;;;;;;1599973;73;766;-67
2022/07/25 03:21:05;;;;;;;;;;;28.10;42.40;;;;;;1595389;73;755;-64
2022/07/25 03:23:06;;;;;;;;;;;28.10;42.40;;;;;;1592991;73;1172;-65
2022/07/25 03:25:08;;;;;;;;;;;28.00;42.40;;;;;;1597060;73;1941;-65
2022/07/25 03:27:10;;;;;;;;;;;28.10;42.30;;;;;;1605511;73;679;-64
2022/07/25 03:29:12;;;;;;;;;;;28.10;42.30;;;;;;1593680;73;1579;-66
2022/07/25 03:31:14;;;;;;;;;;;28.00;42.30;;;;;;1593305;73;655;-67
2022/07/25 03:33:16;;;;;;;;;;;28.00;42.40;;;;;;1608451;73;1130;-68
2022/07/25 03:35:18;;;;;;;;;;;28.10;42.40;;;;;;1599599;73;727;-65
2022/07/25 03:37:20;;;;;;;;;;;28.10;42.30;;;;;;1593212;73;679;-66
2022/07/25 03:39:23;;;;;;;;;;;28.10;42.40;;;;;;1597254;73;743;-65
2022/07/25 03:41:25;;;;;;;;;;;28.00;42.40;;;;;;1602271;73;671;-66
2022/07/25 03:43:27;;;;;;;;;;;28.10;42.40;;;;;;1610419;73;1599;-67
2022/07/25 03:45:28;;;;;;;;;;;28.00;42.40;;;;;;1591334;73;1941;-64
2022/07/25 03:47:30;;;;;;;;;;;28.00;42.50;;;;;;1601760;73;746;-64
2022/07/25 03:49:32;;;;;;;;;;;28.00;42.40;;;;;;1604033;73;752;-68
2022/07/25 03:51:34;;;;;;;;;;;28.00;42.40;;;;;;1598758;73;781;-64
2022/07/25 03:54:00;;;;;;;;;;;28.00;42.30;;;;;;1600733;73;1122;-64
2022/07/25 03:55:39;;;;;;;;;;;28.00;42.40;;;;;;1606636;73;1436;-66
2022/07/25 03:57:42;;;;;;;;;;;28.00;42.40;;;;;;1602560;72;1509;-68
2022/07/25 03:59:43;;;;;;;;;;;28.00;42.40;;;;;;1598201;73;726;-63
2022/07/25 04:01:46;;;;;;;;;;;28.10;42.60;;;;;;1602403;73;1148;-65
2022/07/25 04:03:48;;;;;;;;;;;28.10;42.50;;;;;;1597743;73;705;-65
2022/07/25 04:05:49;;;;;;;;;;;28.10;42.50;;;;;;1603772;73;1926;-65
2022/07/25 04:07:51;;;;;;;;;;;28.10;42.50;;;;;;1601102;73;946;-64
2022/07/25 04:09:53;;;;;;;;;;;28.10;42.50;;;;;;1601214;73;701;-64
2022/07/25 04:11:55;;;;;;;;;;;28.10;42.50;;;;;;1598942;73;1564;-64
2022/07/25 04:13:57;;;;;;;;;;;28.10;42.40;;;;;;1599622;73;808;-66
2022/07/25 04:15:59;;;;;;;;;;;28.10;42.40;;;;;;1598635;73;741;-65
2022/07/25 04:18:01;;;;;;;;;;;28.00;42.40;;;;;;1600606;73;725;-67
2022/07/25 04:20:03;;;;;;;;;;;28.00;42.40;;;;;;1599708;73;753;-65
2022/07/25 04:22:05;;;;;;;;;;;28.00;42.40;;;;;;1595859;73;1179;-65
2022/07/25 04:24:07;;;;;;;;;;;28.00;42.40;;;;;;1602322;73;731;-65
2022/07/25 04:26:09;;;;;;;;;;;28.10;42.40;;;;;;1598993;72;1953;-64
2022/07/25 04:28:11;;;;;;;;;;;28.00;42.40;;;;;;1594200;72;721;-65
2022/07/25 04:30:13;;;;;;;;;;;28.10;42.30;;;;;;1594327;73;699;-66
2022/07/25 04:32:15;;;;;;;;;;;28.00;42.40;;;;;;1599775;73;1203;-63
2022/07/25 04:34:17;;;;;;;;;;;28.00;42.40;;;;;;1595057;73;594;-65
2022/07/25 04:36:19;;;;;;;;;;;28.00;42.40;;;;;;1600043;73;669;-64
2022/07/25 04:38:21;;;;;;;;;;;28.00;42.40;;;;;;1602554;73;760;-65
2022/07/25 04:40:23;;;;;;;;;;;28.00;42.50;;;;;;1606950;73;1578;-66
2022/07/25 04:42:25;;;;;;;;;;;28.00;42.50;;;;;;1606695;73;1149;-65
2022/07/25 04:44:27;;;;;;;;;;;28.10;42.60;;;;;;1600479;73;688;-66
2022/07/25 04:46:28;;;;;;;;;;;28.00;42.60;;;;;;1598820;73;1966;-66
2022/07/25 04:48:30;;;;;;;;;;;28.00;42.60;;;;;;1605949;73;758;-64
2022/07/25 04:50:32;;;;;;;;;;;28.10;42.60;;;;;;1601743;73;732;-65
2022/07/25 04:52:34;;;;;;;;;;;28.10;42.50;;;;;;1591496;73;1163;-66
2022/07/25 04:54:36;;;;;;;;;;;28.00;42.50;;;;;;1594568;73;1531;-69
2022/07/25 04:56:38;;;;;;;;;;;28.00;42.60;;;;;;1605981;73;684;-67
2022/07/25 04:58:40;;;;;;;;;;;28.00;42.70;;;;;;1606037;73;1056;-65
2022/07/25 05:00:42;;;;;;;;;;;28.10;42.90;;;;;;1594868;73;651;-64
2022/07/25 05:02:44;;;;;;;;;;;28.10;42.80;;;;;;1607023;73;1150;-67
2022/07/25 05:04:45;;;;;;;;;;;28.10;42.70;;;;;;1591723;73;1933;-66
2022/07/25 05:06:47;;;;;;;;;;;28.10;42.70;;;;;;1592345;73;721;-67
2022/07/25 05:08:49;;;;;;;;;;;28.10;42.90;;;;;;1598315;73;1240;-67
2022/07/25 05:10:51;;;;;;;;;;;28.10;42.90;;;;;;1590015;73;735;-68
2022/07/25 05:12:53;;;;;;;;;;;28.00;42.80;;;;;;1606576;73;1143;-69
2022/07/25 05:14:55;;;;;;;;;;;28.10;42.90;;;;;;1596224;73;839;-67
2022/07/25 05:16:57;;;;;;;;;;;28.00;42.90;;;;;;1604277;73;894;-66
2022/07/25 05:18:59;;;;;;;;;;;28.00;43.10;;;;;;1599812;73;801;-64
2022/07/25 05:21:01;;;;;;;;;;;28.10;43.10;;;;;;1599701;73;1595;-65
2022/07/25 05:23:03;;;;;;;;;;;28.10;43.10;;;;;;1595355;73;1153;-65
2022/07/25 05:25:08;;;;;;;;;;;28.10;43.10;;;;;;1596643;73;1941;-66
2022/07/25 05:27:10;;;;;;;;;;;28.10;43.10;;;;;;1592338;72;704;-65
2022/07/25 05:29:12;;;;;;;;;;;28.20;43.00;;;;;;1597192;73;784;-65
2022/07/25 05:31:13;;;;;;;;;;;28.20;43.10;;;;;;1601716;73;650;-67
2022/07/25 05:33:15;;;;;;;;;;;28.20;43.10;;;;;;1605285;73;1139;-65
2022/07/25 05:35:17;;;;;;;;;;;28.20;43.00;;;;;;1608483;73;1554;-65
2022/07/25 05:37:19;;;;;;;;;;;28.20;43.10;;;;;;1601613;73;740;-66
2022/07/25 05:39:21;;;;;;;;;;;28.20;43.10;;;;;;1605016;73;665;-66
2022/07/25 05:41:23;;;;;;;;;;;28.20;43.10;;;;;;1593290;73;773;-64
2022/07/25 05:43:25;;;;;;;;;;;28.10;43.20;;;;;;1599364;73;1129;-68
2022/07/25 05:45:26;;;;;;;;;;;28.10;43.10;;;;;;1591996;73;1965;-63
2022/07/25 05:47:28;;;;;;;;;;;28.10;43.10;;;;;;1600509;73;536;-61
2022/07/25 05:49:30;;;;;;;;;;;28.20;43.10;;;;;;1602302;73;1512;-64
2022/07/25 05:51:32;;;;;;;;;;;28.10;43.10;;;;;;1599698;73;833;-66
2022/07/25 05:53:34;;;;;;;;;;;28.10;43.10;;;;;;1598570;73;1128;-64
2022/07/25 05:55:36;;;;;;;;;;;28.10;43.20;;;;;;1604813;73;725;-66
2022/07/25 05:57:38;;;;;;;;;;;28.10;43.30;;;;;;1599202;73;690;-64
2022/07/25 05:59:40;;;;;;;;;;;28.20;43.40;;;;;;1607615;73;719;-64
2022/07/25 06:01:41;;;;;;;;;;;28.20;43.40;;;;;;1593963;73;1144;-65
2022/07/25 06:03:43;;;;;;;;;;;28.30;43.40;;;;;;1600681;73;1412;-65
2022/07/25 06:05:46;;;;;;;;;;;28.30;43.50;;;;;;1592040;73;1913;-66
2022/07/25 06:07:48;;;;;;;;;;;28.30;43.60;;;;;;1605973;73;776;-69
2022/07/25 06:09:50;;;;;;;;;;;28.40;43.90;;;;;;1601132;72;740;-65
2022/07/25 06:11:52;;;;;;;;;;;28.50;43.70;;;;;;1610904;73;1155;-66
2022/07/25 06:13:54;;;;;;;;;;;28.50;43.60;;;;;;1593828;73;756;-67
2022/07/25 06:15:56;;;;;;;;;;;28.50;43.70;;;;;;1600361;73;753;-62
2022/07/25 06:17:58;;;;;;;;;;;28.50;43.60;;;;;;1596135;73;1588;-66
2022/07/25 06:19:59;;;;;;;;;;;28.60;43.80;;;;;;1597429;73;687;-64
2022/07/25 06:22:01;;;;;;;;;;;28.60;43.70;;;;;;1600868;73;1147;-66
2022/07/25 06:24:03;;;;;;;;;;;28.60;43.60;;;;;;1593791;72;700;-64
2022/07/25 06:26:07;;;;;;;;;;;28.70;43.70;;;;;;1586895;73;1923;-64
2022/07/25 06:28:09;;;;;;;;;;;28.70;43.60;;;;;;1592860;73;1578;-66
2022/07/25 06:30:14;;;;;;;;;;;28.80;43.50;;;;;;1597994;73;659;-64
2022/07/25 06:32:16;;;;;;;;;;;28.80;43.30;;;;;;1600940;73;1516;-64
2022/07/25 06:34:18;;;;;;;;;;;28.90;43.30;;;;;;1591594;73;739;-66
2022/07/25 06:36:19;;;;;;;;;;;28.80;43.20;;;;;;1591620;73;731;-67
2022/07/25 06:38:21;;;;;;;;;;;28.90;42.90;;;;;;1600549;73;748;-65
2022/07/25 06:40:23;;;;;;;;;;;29.00;43.40;;;;;;1602908;73;829;-64
2022/07/25 06:42:25;;;;;;;;;;;29.00;43.30;;;;;;1598351;73;1151;-64
2022/07/25 06:44:27;;;;;;;;;;;29.10;43.20;;;;;;1593716;73;640;-63
2022/07/25 06:48:55;;;;;;;;;;;29.10;43.10;;;;;;1549113;75;1519;-67
2022/07/25 06:50:57;;;;;;;;;;;29.20;42.90;;;;;;1547265;75;551;-65
2022/07/25 06:52:59;;;;;;;;;;;29.20;42.60;;;;;;1552282;75;707;-65
2022/07/25 06:55:01;;;;;;;;;;;29.20;42.80;;;;;;1544954;75;629;-65
2022/07/25 06:57:03;;;;;;;;;;;29.20;42.70;;;;;;1545903;75;1214;-66
2022/07/25 06:59:05;;;;;;;;;;;29.20;42.60;;;;;;1525627;76;725;-66
2022/07/25 07:01:07;;;;;;;;;;;29.30;42.50;;;;;;1523959;76;1531;-66
2022/07/25 07:03:09;;;;;;;;;;;29.40;42.30;;;;;;1524096;76;653;-65
2022/07/25 07:05:11;;;;;;;;;;;29.40;42.30;;;;;;1522474;76;695;-66
2022/07/25 07:07:13;;;;;;;;;;;29.40;42.20;;;;;;1517959;76;1951;-66
2022/07/25 07:09:15;;;;;;;;;;;29.40;42.30;;;;;;1524843;76;562;-66
2022/07/25 07:11:17;;;;;;;;;;;29.40;42.40;;;;;;1524590;76;690;-66
2022/07/25 07:13:19;;;;;;;;;;;29.50;42.10;;;;;;1527992;76;664;-66
2022/07/25 07:15:21;;;;;;;;;;;29.40;42.10;;;;;;1523952;76;1575;-66
2022/07/25 07:17:22;;;;;;;;;;;29.50;41.90;;;;;;1525560;76;1146;-66
2022/07/25 07:19:24;;;;;;;;;;;29.50;41.90;;;;;;1514996;76;601;-65
2022/07/25 07:21:26;;;;;;;;;;;29.50;41.90;;;;;;1522370;76;586;-65
2022/07/25 07:23:28;;;;;;;;;;;29.50;41.80;;;;;;1519765;76;743;-66
2022/07/25 07:25:30;;;;;;;;;;;29.60;41.60;;;;;;1523971;76;744;-66
2022/07/25 07:27:32;;;;;;;;;;;29.60;41.60;;;;;;1518279;76;1172;-64
2022/07/25 07:29:34;;;;;;;;;;;29.60;41.50;;;;;;1523204;76;1720;-66
2022/07/25 07:31:36;;;;;;;;;;;29.50;41.60;;;;;;1524110;76;657;-66
2022/07/25 07:33:37;;;;;;;;;;;29.50;41.60;;;;;;1524105;76;596;-65
2022/07/25 07:35:40;;;;;;;;;;;29.60;41.60;;;;;;1524759;76;683;-65
2022/07/25 07:37:43;;;;;;;;;;;29.60;41.60;;;;;;1527909;76;1139;-65
2022/07/25 07:39:44;;;;;;;;;;;29.60;41.60;;;;;;1525556;76;632;-65
2022/07/25 07:41:46;;;;;;;;;;;29.60;41.80;;;;;;1524740;76;1568;-65
2022/07/25 07:43:48;;;;;;;;;;;29.50;41.80;;;;;;1521226;76;682;-65
2022/07/25 07:45:50;;;;;;;;;;;29.70;41.90;;;;;;1525343;76;1940;-66
2022/07/25 07:47:52;;;;;;;;;;;29.60;41.80;;;;;;1522613;76;1132;-66
2022/07/25 07:49:54;;;;;;;;;;;29.60;41.50;;;;;;1523897;76;680;-66
2022/07/25 07:51:56;;;;;;;;;;;29.70;41.50;;;;;;1523808;76;768;-66
2022/07/25 07:56:18;;;;;;;;;;;29.60;41.60;;;;;;1515963;76;1677;-66
2022/07/25 07:58:20;;;;;;;;;;;29.70;41.60;;;;;;1520505;76;1122;-67
2022/07/25 08:00:22;;;;;;;;;;;29.70;41.70;;;;;;1524713;76;691;-65
2022/07/25 08:02:23;;;;;;;;;;;29.70;41.50;;;;;;1522956;76;695;-65
2022/07/25 08:04:25;;;;;;;;;;;29.70;41.70;;;;;;1511071;76;750;-64
2022/07/25 08:06:27;;;;;;;;;;;29.70;41.60;;;;;;1521851;76;1936;-63
2022/07/25 08:08:29;;;;;;;;;;;29.60;42.30;;;;;;1523450;76;1111;-64
2022/07/25 08:10:32;;;;;;;;;;;29.60;42.30;;;;;;1520556;76;1486;-64
2022/07/25 08:12:34;;;;;;;;;;;29.60;42.30;;;;;;1523561;76;698;-64
2022/07/25 08:14:36;;;;;;;;;;;29.70;42.30;;;;;;1515238;77;1213;-65
2022/07/25 08:16:38;;;;;;;;;;;29.60;42.50;;;;;;1520479;76;708;-64
2022/07/25 08:18:40;;;;;;;;;;;29.50;42.30;;;;;;1524272;76;776;-66
2022/07/25 08:20:42;;;;;;;;;;;29.60;42.10;;;;;;1521610;76;658;-64
2022/07/25 08:22:48;;;;;;;;;;;29.70;42.60;;;;;;1523731;76;687;-65
2022/07/25 08:24:50;;;;;;;;;;;29.70;42.10;;;;;;1524855;76;1550;-66
2022/07/25 08:26:52;;;;;;;;;;;29.80;42.00;;;;;;1525996;76;1930;-65
2022/07/25 08:28:53;;;;;;;;;;;29.70;42.00;;;;;;1524163;76;778;-67
2022/07/25 08:30:56;;;;;;;;;;;29.80;42.30;;;;;;1523138;76;667;-66
2022/07/25 08:33:00;;;;;;;;;;;29.70;41.90;;;;;;1524086;76;746;-67
2022/07/25 08:35:02;;;;;;;;;;;29.80;42.10;;;;;;1525197;76;769;-67
2022/07/25 08:37:04;;;;;;;;;;;29.80;41.90;;;;;;1525468;76;1138;-66
2022/07/25 08:39:05;;;;;;;;;;;29.80;41.90;;;;;;1527353;76;1202;-67
2022/07/25 08:41:07;;;;;;;;;;;29.80;41.80;;;;;;1525905;76;719;-67
2022/07/25 08:43:11;;;;;;;;;;;29.80;41.60;;;;;;1525732;76;656;-66
2022/07/25 08:45:15;;;;;;;;;;;29.80;42.10;;;;;;1522213;76;1607;-65
2022/07/25 08:47:17;;;;;;;;;;;29.80;41.60;;;;;;1525319;76;1912;-66
2022/07/25 08:49:18;;;;;;;;;;;29.80;41.70;;;;;;1526122;76;677;-67
2022/07/25 08:51:20;;;;;;;;;;;29.80;42.40;;;;;;1523814;76;802;-67
2022/07/25 08:53:22;;;;;;;;;;;29.80;42.50;;;;;;1529301;76;1494;-67
2022/07/25 08:55:24;;;;;;;;;;;29.80;41.70;;;;;;1525490;76;729;-67
2022/07/25 08:57:26;;;;;;;;;;;29.80;42.10;;;;;;1525553;76;1158;-66
2022/07/25 08:59:30;;;;;;;;;;;29.80;42.00;;;;;;1523736;76;634;-66
2022/07/25 09:01:32;;;;;;;;;;;29.70;41.90;;;;;;1525757;76;1911;-66
2022/07/25 09:03:35;;;;;;;;;;;29.80;41.80;;;;;;1524347;76;694;-67
2022/07/25 09:05:37;;;;;;;;;;;29.80;41.80;;;;;;1524712;76;603;-66
2022/07/25 09:07:39;;;;;;;;;;;29.70;41.80;;;;;;1523054;76;1941;-66
2022/07/25 09:09:43;;;;;;;;;;;29.60;41.70;;;;;;1526054;76;790;-66
2022/07/25 09:11:45;;;;;;;;;;;29.60;41.80;;;;;;1521556;76;662;-66
2022/07/25 09:13:47;;;;;;;;;;;29.60;41.60;;;;;;1525135;76;644;-66
2022/07/25 09:15:54;;;;;;;;;;;29.70;41.60;;;;;;1504019;77;1141;-67
2022/07/25 09:17:57;;;;;;;;;;;29.70;41.50;;;;;;1522265;76;1172;-66
2022/07/25 09:19:59;;;;;;;;;;;29.70;41.10;;;;;;1525501;76;674;-65
2022/07/25 09:22:02;;;;;;;;;;;29.80;41.00;;;;;;1523713;76;1619;-65
2022/07/25 09:24:14;;;;;;;;;;;29.70;40.90;;;;;;1522632;76;673;-67
2022/07/25 09:26:17;;;;;;;;;;;29.70;40.50;;;;;;1522345;76;1905;-66
2022/07/25 09:28:19;;;;;;;;;;;29.70;40.80;;;;;;1525196;76;1195;-65
2022/07/25 09:30:21;;;;;;;;;;;29.60;41.00;;;;;;1525719;76;741;-66
2022/07/25 09:32:24;;;;;;;;;;;29.60;41.00;;;;;;1525316;76;689;-67
2022/07/25 09:34:39;;;;;;;;;;;29.60;40.80;;;;;;1524354;76;1478;-66
2022/07/25 09:36:52;;;;;;;;;;;29.70;40.70;;;;;;1526106;76;1150;-66
2022/07/25 09:39:00;;;;;;;;;;;29.80;40.50;;;;;;1524861;76;1413;-66
2022/07/25 09:41:02;;;;;;;;;;;29.70;40.30;;;;;;1525812;76;727;-68
2022/07/25 09:43:04;;;;;;;;;;;29.70;40.30;;;;;;1525038;76;680;-66
2022/07/25 09:45:11;;;;;;;;;;;29.70;40.20;;;;;;1523688;76;746;-67
2022/07/25 09:47:13;;;;;;;;;;;29.60;40.30;;;;;;1524072;76;1908;-64
2022/07/25 09:49:15;;;;;;;;;;;29.70;40.30;;;;;;1528594;76;1302;-64
2022/07/25 09:51:17;;;;;;;;;;;29.60;40.10;;;;;;1526610;76;701;-65
2022/07/25 09:53:19;;;;;;;;;;;29.70;40.10;;;;;;1529330;76;659;-65
2022/07/25 09:55:21;;;;;;;;;;;29.60;39.30;;;;;;1524788;76;643;-66
2022/07/25 09:57:24;;;;;;;;;;;29.50;39.00;;;;;;1528714;76;1195;-66
2022/07/25 09:59:26;;;;;;;;;;;29.50;39.60;;;;;;1523553;76;616;-65
2022/07/25 10:01:29;;;;;;;;;;;29.60;39.10;;;;;;1531161;76;742;-63
2022/07/25 10:03:50;;;;;;;;;;;29.50;38.40;;;;;;1523767;76;2134;-64
2022/07/25 10:06:09;;;;;;;;;;;29.50;39.50;;;;;;1524484;76;613;-64
2022/07/25 10:08:11;;;;;;;;;;;29.60;39.40;;;;;;1526248;76;1930;-65
2022/07/25 10:10:27;;;;;;;;;;;29.60;39.20;;;;;;1525612;76;674;-64
2022/07/25 10:12:29;;;;;;;;;;;29.50;38.90;;;;;;1528259;76;684;-65
2022/07/25 10:14:32;;;;;;;;;;;29.60;39.20;;;;;;1524922;76;767;-65
2022/07/25 10:16:34;;;;;;;;;;;29.50;38.30;;;;;;1523953;76;1550;-67
2022/07/25 10:18:37;;;;;;;;;;;29.50;38.90;;;;;;1539077;76;1289;-66
2022/07/25 10:20:39;;;;;;;;;;;29.60;38.60;;;;;;1525246;76;1571;-65
2022/07/25 10:22:49;;;;;;;;;;;29.50;38.10;;;;;;1526201;76;761;-66
2022/07/25 10:24:48;;;;;;;;;;;29.40;38.40;;;;;;1524332;76;1277;-66
2022/07/25 10:26:53;;;;;;;;;;;29.50;38.80;;;;;;1523535;76;1948;-66
2022/07/25 10:28:57;;;;;;;;;;;29.50;37.80;;;;;;1524318;76;666;-66
2022/07/25 10:30:59;;;;;;;;;;;29.40;38.00;;;;;;1525716;76;1373;-67
2022/07/25 10:33:02;;;;;;;;;;;29.40;38.50;;;;;;1525929;76;975;-67
2022/07/25 10:35:15;;;;;;;;;;;29.40;38.50;;;;;;1525140;76;707;-67
2022/07/25 10:37:17;;;;;;;;;;;29.50;38.30;;;;;;1524972;76;1155;-67
2022/07/25 10:39:21;;;;;;;;;;;29.40;38.10;;;;;;1527409;76;814;-67
2022/07/25 10:41:26;;;;;;;;;;;29.40;38.40;;;;;;1526027;76;663;-67
2022/07/25 10:43:28;;;;;;;;;;;29.40;37.20;;;;;;1525605;76;724;-65
2022/07/25 10:45:49;;;;;;;;;;;29.40;38.30;;;;;;1522269;76;1254;-66
2022/07/25 10:47:53;;;;;;;;;;;29.40;38.20;;;;;;1525303;76;1951;-67
2022/07/25 10:49:58;;;;;;;;;;;29.40;38.10;;;;;;1523977;76;789;-67
2022/07/25 10:52:01;;;;;;;;;;;29.40;38.10;;;;;;1525489;76;707;-66
2022/07/25 10:54:16;;;;;;;;;;;29.40;37.90;;;;;;1526295;76;692;-65
2022/07/25 10:56:19;;;;;;;;;;;29.40;37.10;;;;;;1525248;76;715;-66
2022/07/25 10:58:21;;;;;;;;;;;29.50;37.60;;;;;;1525584;76;1142;-66
2022/07/25 11:00:23;;;;;;;;;;;29.30;37.00;;;;;;1525024;76;1506;-66
2022/07/25 11:02:25;;;;;;;;;;;29.40;37.40;;;;;;1522762;76;681;-66
2022/07/25 11:04:27;;;;;;;;;;;29.40;37.10;;;;;;1524736;76;749;-66
2022/07/25 11:06:29;;;;;;;;;;;29.30;36.30;;;;;;1524588;76;672;-67
2022/07/25 11:08:35;;;;;;;;;;;29.30;37.20;;;;;;1524860;76;1924;-66
2022/07/25 11:10:37;;;;;;;;;;;29.40;36.50;;;;;;1525791;76;672;-65
2022/07/25 11:12:38;;;;;;;;;;;29.30;37.30;;;;;;1524543;76;1431;-67
2022/07/25 11:14:41;;;;;;;;;;;29.40;36.70;;;;;;1525399;76;671;-66
2022/07/25 11:16:44;;;;;;;;;;;29.30;35.80;;;;;;1525601;76;1150;-66
2022/07/25 11:18:46;;;;;;;;;;;29.30;35.70;;;;;;1525488;76;647;-67
2022/07/25 11:20:49;;;;;;;;;;;29.30;36.70;;;;;;1525894;76;714;-67
2022/07/25 11:22:52;;;;;;;;;;;29.20;36.90;;;;;;1525221;76;1759;-66
2022/07/25 11:24:55;;;;;;;;;;;29.30;36.90;;;;;;1524304;76;700;-67
2022/07/25 11:26:57;;;;;;;;;;;29.40;37.00;;;;;;1525157;76;1940;-67
2022/07/25 11:28:59;;;;;;;;;;;29.50;37.00;;;;;;1526077;76;779;-66
2022/07/25 11:31:04;;;;;;;;;;;29.50;37.00;;;;;;1525159;76;696;-66
2022/07/25 11:33:06;;;;;;;;;;;29.50;37.10;;;;;;1514593;76;664;-66
2022/07/25 11:35:08;;;;;;;;;;;29.40;37.10;;;;;;1524296;76;694;-69
2022/07/25 11:37:11;;;;;;;;;;;29.40;37.10;;;;;;1523959;76;1179;-66
2022/07/25 11:39:12;;;;;;;;;;;29.40;37.20;;;;;;1526928;76;693;-66
2022/07/25 11:41:14;;;;;;;;;;;29.40;37.10;;;;;;1525982;76;1470;-68
2022/07/25 11:43:20;;;;;;;;;;;29.50;37.20;;;;;;1525464;76;666;-66
2022/07/25 11:45:28;;;;;;;;;;;29.50;37.20;;;;;;1525270;76;643;-66
2022/07/25 11:47:31;;;;;;;;;;;29.40;37.20;;;;;;1517442;76;1941;-66
2022/07/25 11:49:46;;;;;;;;;;;29.40;37.30;;;;;;1518999;76;715;-68
2022/07/25 11:51:48;;;;;;;;;;;29.50;37.30;;;;;;1525178;76;637;-66
2022/07/25 11:53:50;;;;;;;;;;;29.40;37.30;;;;;;1525378;76;674;-66
2022/07/25 11:55:52;;;;;;;;;;;29.50;37.30;;;;;;1522654;76;1488;-65
2022/07/25 11:57:55;;;;;;;;;;;29.40;37.30;;;;;;1526261;76;1104;-68
2022/07/25 11:59:59;;;;;;;;;;;29.40;37.40;;;;;;1537917;76;1173;-66
2022/07/25 12:02:01;;;;;;;;;;;29.40;37.40;;;;;;1524100;76;938;-66
2022/07/25 12:04:15;;;;;;;;;;;29.40;37.40;;;;;;1519566;76;714;-66
2022/07/25 12:06:17;;;;;;;;;;;29.40;37.40;;;;;;1522895;76;658;-61
2022/07/25 12:08:20;;;;;;;;;;;29.40;37.40;;;;;;1525450;76;1965;-65
2022/07/25 12:10:23;;;;;;;;;;;29.50;37.40;;;;;;1525933;76;1420;-65
2022/07/25 12:12:25;;;;;;;;;;;29.50;37.40;;;;;;1524573;76;681;-65
2022/07/25 12:14:26;;;;;;;;;;;29.50;37.30;;;;;;1526383;76;692;-66
2022/07/25 12:16:28;;;;;;;;;;;29.50;37.30;;;;;;1525385;76;688;-66